createdAt,value
2019-02-15T00:01:51.109Z,12.88
2019-02-15T00:04:26.072Z,13.72
2019-02-15T00:07:01.060Z,12.80
2019-02-15T00:09:36.007Z,14.25
2019-02-15T00:12:10.963Z,12.95
2019-02-15T00:14:48.544Z,15.60
2019-02-15T00:17:57.989Z,14.87
2019-02-15T00:20:36.670Z,16.00
2019-02-15T00:23:11.591Z,16.45
2019-02-15T00:28:19.820Z,15.18
2019-02-15T00:30:54.485Z,16.30
2019-02-15T00:33:29.206Z,16.70
2019-02-15T00:36:03.788Z,16.50
2019-02-15T00:38:38.499Z,17.40
2019-02-15T00:41:13.141Z,16.23
2019-02-15T00:43:47.835Z,15.75
2019-02-15T00:46:37.103Z,16.60
2019-02-15T00:49:17.997Z,15.72
2019-02-15T00:52:18.030Z,15.98
2019-02-15T00:55:10.885Z,15.23
2019-02-15T00:58:03.949Z,14.47
2019-02-15T01:00:58.540Z,17.05
2019-02-15T01:03:51.557Z,14.75
2019-02-15T01:08:13.049Z,13.83
2019-02-15T01:11:13.028Z,15.48
2019-02-15T01:13:47.658Z,15.65
2019-02-15T01:18:55.647Z,15.48
2019-02-15T01:24:03.732Z,15.78
2019-02-15T01:29:33.988Z,16.27
2019-02-15T01:32:46.687Z,16.23
2019-02-15T01:38:37.970Z,15.23
2019-02-15T01:41:32.452Z,15.23
2019-02-15T01:44:22.801Z,17.73
2019-02-15T01:47:01.876Z,17.32
2019-02-15T01:49:36.792Z,15.78
2019-02-15T01:52:12.655Z,15.70
2019-02-15T01:54:47.615Z,17.65
2019-02-15T01:57:22.667Z,17.60
2019-02-15T02:02:31.225Z,17.12
2019-02-15T02:05:06.573Z,17.30
2019-02-15T02:07:42.144Z,17.15
2019-02-15T02:10:17.439Z,15.70
2019-02-15T02:12:52.062Z,17.30
2019-02-15T02:15:26.964Z,17.40
2019-02-15T02:18:01.732Z,17.52
2019-02-15T02:21:47.054Z,16.85
2019-02-15T02:24:22.061Z,16.48
2019-02-15T02:26:56.938Z,17.27
2019-02-15T02:29:31.831Z,17.82
2019-02-15T02:32:06.808Z,17.23
2019-02-15T02:34:42.318Z,18.00
2019-02-15T02:37:17.169Z,17.70
2019-02-15T02:39:53.011Z,16.87
2019-02-15T02:42:29.856Z,16.17
2019-02-15T02:45:05.049Z,16.52
2019-02-15T02:47:41.553Z,16.27
2019-02-15T02:50:18.653Z,16.10
2019-02-15T02:55:27.579Z,16.93
2019-02-15T02:58:02.153Z,16.80
2019-02-15T03:00:37.323Z,16.45
2019-02-15T03:03:12.135Z,17.23
2019-02-15T03:05:46.915Z,17.62
2019-02-15T03:08:21.713Z,17.10
2019-02-15T03:10:56.549Z,17.50
2019-02-15T03:13:31.451Z,16.25
2019-02-15T03:16:06.691Z,16.73
2019-02-15T03:18:41.637Z,15.45
2019-02-15T03:22:43.043Z,15.48
2019-02-15T03:25:21.183Z,14.38
2019-02-15T03:27:56.053Z,15.72
2019-02-15T03:30:31.182Z,15.55
2019-02-15T03:33:07.534Z,14.78
2019-02-15T03:35:54.593Z,15.50
2019-02-15T03:44:00.814Z,17.27
2019-02-15T03:46:35.312Z,18.35
2019-02-15T03:49:09.642Z,18.40
2019-02-15T03:54:18.173Z,17.85
2019-02-15T03:56:52.675Z,19.37
2019-02-15T03:59:27.031Z,18.55
2019-02-15T04:02:01.542Z,18.57
2019-02-15T04:04:38.543Z,20.32
2019-02-15T04:07:12.784Z,19.65
2019-02-15T04:09:47.039Z,19.17
2019-02-15T04:12:21.691Z,18.35
2019-02-15T04:17:30.330Z,18.98
2019-02-15T04:20:06.648Z,19.32
2019-02-15T04:25:15.669Z,17.92
2019-02-15T04:27:50.342Z,18.52
2019-02-15T04:30:24.787Z,19.30
2019-02-15T04:32:59.608Z,17.35
2019-02-15T04:35:34.182Z,18.55
2019-02-15T04:38:09.054Z,17.25
2019-02-15T04:40:44.535Z,18.02
2019-02-15T04:43:19.320Z,17.07
2019-02-15T04:45:53.956Z,16.15
2019-02-15T04:48:29.638Z,18.62
2019-02-15T04:51:05.592Z,16.80
2019-02-15T04:56:14.785Z,18.57
2019-02-15T04:58:49.443Z,18.15
2019-02-15T05:01:24.354Z,19.85
2019-02-15T05:03:59.172Z,17.12
2019-02-15T05:06:33.940Z,18.52
2019-02-15T05:09:08.873Z,19.15
2019-02-15T05:11:43.661Z,18.77
2019-02-15T05:14:18.184Z,19.77
2019-02-15T05:16:53.337Z,18.30
2019-02-15T05:19:28.161Z,18.92
2019-02-15T05:22:02.976Z,18.45
2019-02-15T05:24:37.792Z,18.62
2019-02-15T05:27:12.568Z,19.98
2019-02-15T05:29:47.527Z,18.10
2019-02-15T05:32:25.315Z,17.37
2019-02-15T05:35:00.291Z,17.42
2019-02-15T05:37:35.776Z,17.55
2019-02-15T05:40:10.313Z,18.52
2019-02-15T05:42:45.044Z,17.52
2019-02-15T05:45:20.448Z,17.80
2019-02-15T05:47:55.050Z,17.10
2019-02-15T05:50:29.800Z,17.05
2019-02-15T05:53:04.648Z,16.25
2019-02-15T05:55:39.332Z,16.67
2019-02-15T05:58:14.456Z,15.90
2019-02-15T06:00:49.508Z,17.02
2019-02-15T06:05:58.070Z,16.85
2019-02-15T06:08:32.826Z,17.75
2019-02-15T06:11:08.370Z,18.20
2019-02-15T06:13:43.882Z,18.73
2019-02-15T06:16:20.097Z,17.73
2019-02-15T06:18:55.026Z,16.95
2019-02-15T06:21:29.998Z,17.95
2019-02-15T06:24:05.000Z,17.52
2019-02-15T06:26:39.568Z,17.20
2019-02-15T06:31:49.040Z,17.05
2019-02-15T06:34:24.120Z,17.55
2019-02-15T06:36:59.127Z,16.40
2019-02-15T06:39:33.873Z,16.32
2019-02-15T06:42:09.049Z,16.97
2019-02-15T06:44:44.833Z,17.67
2019-02-15T06:47:19.735Z,17.07
2019-02-15T06:52:28.671Z,16.40
2019-02-15T06:57:39.115Z,18.00
2019-02-15T07:00:30.509Z,17.85
2019-02-15T07:03:23.846Z,16.93
2019-02-15T07:05:58.919Z,18.20
2019-02-15T07:08:33.606Z,18.02
2019-02-15T07:16:19.527Z,17.23
2019-02-15T07:18:53.968Z,16.12
2019-02-15T07:21:28.941Z,16.97
2019-02-15T07:24:03.946Z,15.90
2019-02-15T07:26:38.548Z,17.15
2019-02-15T07:29:13.061Z,16.30
2019-02-15T07:31:47.627Z,18.12
2019-02-15T07:36:56.559Z,15.15
2019-02-15T07:39:31.504Z,15.48
2019-02-15T07:42:06.310Z,16.42
2019-02-15T07:44:41.179Z,16.35
2019-02-15T07:47:16.066Z,17.65
2019-02-15T07:49:50.929Z,16.10
2019-02-15T07:52:25.726Z,15.70
2019-02-15T08:00:13.107Z,15.78
2019-02-15T08:02:48.059Z,16.23
2019-02-15T08:05:23.605Z,15.83
2019-02-15T08:07:58.705Z,15.48
2019-02-15T08:10:33.528Z,16.20
2019-02-15T08:13:08.051Z,16.00
2019-02-15T08:15:51.302Z,14.95
2019-02-15T08:18:20.276Z,14.50
2019-02-15T08:20:55.310Z,14.78
2019-02-15T08:23:30.431Z,13.75
2019-02-15T08:26:05.325Z,14.28
2019-02-15T08:28:40.151Z,13.05
2019-02-15T08:31:16.866Z,13.90
2019-02-15T08:33:52.020Z,14.25
2019-02-15T08:36:27.042Z,14.20
2019-02-15T08:39:02.337Z,13.98
2019-02-15T08:41:38.568Z,14.20
2019-02-15T08:51:56.050Z,12.68
2019-02-15T08:54:31.129Z,12.03
2019-02-15T08:57:06.323Z,11.90
2019-02-15T08:59:42.657Z,11.20
2019-02-15T09:02:23.583Z,11.93
2019-02-15T09:07:36.299Z,11.80
2019-02-15T09:10:22.105Z,12.53
2019-02-15T09:12:57.437Z,11.45
2019-02-15T09:15:32.107Z,11.40
2019-02-15T09:18:06.699Z,11.43
2019-02-15T09:20:41.305Z,12.73
2019-02-15T09:23:16.470Z,12.33
2019-02-15T09:25:51.027Z,12.15
2019-02-15T09:28:31.677Z,12.37
2019-02-15T09:31:07.445Z,12.05
2019-02-15T09:33:43.516Z,11.85
2019-02-15T09:36:20.318Z,11.60
2019-02-15T09:39:00.375Z,11.60
2019-02-15T09:41:37.852Z,11.90
2019-02-15T09:44:14.834Z,11.80
2019-02-15T09:46:52.634Z,11.25
2019-02-15T09:52:01.883Z,12.25
2019-02-15T09:54:36.183Z,11.28
2019-02-15T09:57:18.988Z,10.58
2019-02-15T09:59:55.064Z,10.98
2019-02-15T10:02:30.083Z,11.43
2019-02-15T10:05:08.601Z,11.30
2019-02-15T10:10:18.798Z,10.65
2019-02-15T10:12:53.114Z,10.68
2019-02-15T10:15:28.909Z,11.10
2019-02-15T10:18:03.986Z,10.55
2019-02-15T10:20:39.130Z,10.72
2019-02-15T10:23:14.168Z,10.58
2019-02-15T10:25:48.784Z,9.83
2019-02-15T10:28:24.043Z,9.55
2019-02-15T10:30:59.567Z,10.38
2019-02-15T10:36:08.997Z,10.38
2019-02-15T10:38:44.774Z,10.43
2019-02-15T10:41:21.558Z,9.75
2019-02-15T10:46:37.778Z,10.45
2019-02-15T10:49:11.793Z,9.65
2019-02-15T10:51:46.431Z,9.78
2019-02-15T10:54:21.443Z,9.78
2019-02-15T10:56:56.979Z,9.50
2019-02-15T11:02:05.312Z,10.30
2019-02-15T11:04:41.144Z,10.45
2019-02-15T11:07:15.994Z,9.60
2019-02-15T11:09:51.610Z,10.40
2019-02-15T11:15:00.726Z,10.63
2019-02-15T11:17:35.332Z,10.40
2019-02-15T11:20:12.693Z,10.85
2019-02-15T11:22:47.584Z,9.95
2019-02-15T11:30:30.748Z,10.45
2019-02-15T11:33:05.308Z,10.20
2019-02-15T11:35:39.964Z,10.72
2019-02-15T11:38:15.678Z,10.90
2019-02-15T11:40:50.070Z,10.70
2019-02-15T11:43:24.954Z,10.48
2019-02-15T11:46:00.019Z,10.05
2019-02-15T11:48:34.301Z,10.08
2019-02-15T11:51:08.823Z,10.18
2019-02-15T11:53:43.503Z,11.35
2019-02-15T11:58:51.475Z,9.80
2019-02-15T12:01:26.027Z,10.05
2019-02-15T12:04:00.848Z,9.28
2019-02-15T12:06:37.315Z,10.03
2019-02-15T12:09:12.172Z,11.15
2019-02-15T12:11:46.825Z,9.25
2019-02-15T12:14:21.939Z,8.45
2019-02-15T12:17:05.271Z,10.88
2019-02-15T12:22:07.100Z,8.30
2019-02-15T12:24:41.856Z,6.67
2019-02-15T12:27:16.445Z,8.00
2019-02-15T12:29:51.327Z,7.08
2019-02-15T12:32:25.896Z,6.35
2019-02-15T12:35:00.454Z,5.97
2019-02-15T12:37:35.075Z,6.08
2019-02-15T12:40:09.853Z,6.30
2019-02-15T12:42:44.552Z,6.12
2019-02-15T12:45:19.343Z,5.47
2019-02-15T12:47:54.490Z,4.75
2019-02-15T12:50:29.294Z,4.25
2019-02-15T12:53:03.661Z,4.42
2019-02-15T12:55:38.050Z,3.50
2019-02-15T12:58:12.942Z,3.98
2019-02-15T13:00:47.509Z,4.35
2019-02-15T13:03:22.630Z,3.70
2019-02-15T13:08:35.093Z,3.55
2019-02-15T13:11:09.707Z,4.20
2019-02-15T13:16:18.839Z,3.90
2019-02-15T13:18:53.637Z,4.12
2019-02-15T13:24:01.950Z,4.00
2019-02-15T13:26:36.715Z,4.00
2019-02-15T13:29:11.614Z,4.10
2019-02-15T13:34:20.585Z,3.62
2019-02-15T13:36:55.134Z,3.30
2019-02-15T13:39:29.823Z,2.92
2019-02-15T13:42:04.644Z,3.02
2019-02-15T13:47:13.069Z,2.60
2019-02-15T13:49:47.605Z,1.50
2019-02-15T13:54:55.740Z,1.72
2019-02-15T13:57:30.047Z,1.20
2019-02-15T14:00:05.068Z,2.52
2019-02-15T14:02:40.994Z,1.20
2019-02-15T14:05:15.593Z,1.00
2019-02-15T14:07:49.963Z,1.00
2019-02-15T14:10:24.820Z,1.50
2019-02-15T14:13:45.102Z,1.10
2019-02-15T14:16:55.403Z,1.32
2019-02-15T14:20:42.743Z,1.02
2019-02-15T14:23:47.067Z,0.80
2019-02-15T14:26:25.313Z,0.93
2019-02-15T14:28:59.627Z,2.83
2019-02-15T14:34:07.774Z,1.42
2019-02-15T14:36:42.147Z,1.20
2019-02-15T14:39:16.707Z,1.00
2019-02-15T14:44:25.307Z,1.00
2019-02-15T14:47:00.069Z,1.02
2019-02-15T14:49:34.770Z,1.10
2019-02-15T14:52:09.876Z,1.12
2019-02-15T14:54:44.994Z,1.17
2019-02-15T14:57:20.008Z,1.10
2019-02-15T14:59:54.935Z,1.10
2019-02-15T15:02:29.881Z,1.55
2019-02-15T15:05:06.519Z,1.85
2019-02-15T15:07:41.326Z,1.40
2019-02-15T15:10:16.072Z,1.40
2019-02-15T15:12:50.953Z,1.20
2019-02-15T15:15:25.639Z,1.50
2019-02-15T15:20:37.316Z,1.50
2019-02-15T15:23:12.632Z,1.60
2019-02-15T15:28:21.674Z,1.60
2019-02-15T15:33:48.534Z,1.98
2019-02-15T15:36:23.327Z,1.82
2019-02-15T15:38:58.143Z,1.75
2019-02-15T15:41:32.997Z,2.10
2019-02-15T15:44:08.062Z,2.00
2019-02-15T15:46:43.331Z,2.20
2019-02-15T15:49:18.527Z,2.12
2019-02-15T15:51:53.318Z,1.98
2019-02-15T15:54:28.188Z,1.87
2019-02-15T15:57:02.958Z,2.02
2019-02-15T15:59:37.670Z,1.90
2019-02-15T16:04:46.066Z,2.47
2019-02-15T16:07:21.052Z,2.10
2019-02-15T16:09:56.166Z,2.67
2019-02-15T16:12:31.025Z,2.62
2019-02-15T16:15:07.029Z,2.45
2019-02-15T16:17:42.821Z,2.80
2019-02-15T16:20:17.944Z,3.22
2019-02-15T16:22:52.630Z,4.10
2019-02-15T16:28:01.990Z,7.47
2019-02-15T16:31:07.035Z,4.05
2019-02-15T16:33:41.854Z,5.28
2019-02-15T16:36:16.687Z,4.92
2019-02-15T16:38:51.592Z,5.50
2019-02-15T16:44:01.035Z,4.10
2019-02-15T16:47:01.187Z,3.67
2019-02-15T16:51:06.690Z,4.40
2019-02-15T16:53:43.067Z,4.55
2019-02-15T16:56:18.340Z,4.30
2019-02-15T16:58:53.790Z,3.77
2019-02-15T17:01:28.655Z,4.03
2019-02-15T17:06:38.164Z,3.58
2019-02-15T17:09:17.019Z,4.05
2019-02-15T17:11:52.174Z,3.87
2019-02-15T17:14:27.522Z,4.92
2019-02-15T17:17:02.544Z,4.10
2019-02-15T17:24:49.096Z,4.12
2019-02-15T17:27:24.637Z,3.95
2019-02-15T17:29:59.454Z,3.98
2019-02-15T17:32:35.723Z,4.42
2019-02-15T17:35:11.337Z,4.60
2019-02-15T17:37:46.306Z,5.62
2019-02-15T17:40:21.512Z,8.28
2019-02-15T17:42:58.399Z,7.80
2019-02-15T17:45:33.320Z,7.40
2019-02-15T17:48:09.102Z,6.28
2019-02-15T17:50:44.506Z,7.53
2019-02-15T17:53:19.368Z,6.60
2019-02-15T17:55:54.334Z,7.12
2019-02-15T17:58:29.081Z,7.40
2019-02-15T18:01:04.323Z,7.08
2019-02-15T18:03:39.486Z,7.53
2019-02-15T18:06:14.500Z,7.58
2019-02-15T18:11:23.493Z,8.33
2019-02-15T18:13:58.229Z,8.03
2019-02-15T18:16:33.110Z,8.78
2019-02-15T18:19:10.081Z,8.20
2019-02-15T18:21:45.312Z,8.15
2019-02-15T18:24:20.149Z,7.92
2019-02-15T18:26:55.541Z,8.00
2019-02-15T18:29:30.332Z,7.80
2019-02-15T18:32:05.314Z,9.18
2019-02-15T18:34:40.469Z,7.97
2019-02-15T18:37:15.112Z,8.05
2019-02-15T18:39:50.112Z,8.85
2019-02-15T18:42:25.100Z,7.90
2019-02-15T18:45:13.020Z,8.10
2019-02-15T18:47:48.203Z,7.85
2019-02-15T18:50:23.423Z,8.18
2019-02-15T18:52:58.326Z,8.60
2019-02-15T18:55:33.300Z,8.48
2019-02-15T18:58:08.317Z,9.60
2019-02-15T19:00:43.678Z,8.30
2019-02-15T19:03:19.561Z,8.40
2019-02-15T19:08:29.168Z,8.75
2019-02-15T19:11:03.715Z,9.15
2019-02-15T19:13:39.341Z,8.68
2019-02-15T19:16:13.899Z,7.60
2019-02-15T19:18:49.554Z,7.97
2019-02-15T19:23:57.864Z,7.75
2019-02-15T19:26:32.325Z,7.72
2019-02-15T19:29:06.823Z,7.17
2019-02-15T19:31:41.558Z,8.20
2019-02-15T19:39:24.098Z,7.37
2019-02-15T19:41:59.013Z,8.18
2019-02-15T19:44:33.849Z,7.92
2019-02-15T19:47:08.910Z,7.28
2019-02-15T19:49:43.559Z,7.35
2019-02-15T19:54:52.471Z,7.97
2019-02-15T19:57:27.523Z,8.50
2019-02-15T20:02:36.529Z,10.08
2019-02-15T20:05:11.060Z,8.50
2019-02-15T20:07:46.039Z,9.90
2019-02-15T20:10:21.807Z,9.38
2019-02-15T20:12:56.304Z,10.70
2019-02-15T20:15:31.050Z,10.93
2019-02-15T20:18:05.671Z,9.90
2019-02-15T20:20:40.174Z,10.35
2019-02-15T20:23:14.867Z,11.12
2019-02-15T20:25:49.592Z,9.63
2019-02-15T20:31:00.969Z,11.13
2019-02-15T20:33:38.700Z,8.93
2019-02-15T20:36:33.146Z,9.73
2019-02-15T20:39:07.840Z,9.23
2019-02-15T20:41:43.861Z,8.78
2019-02-15T20:44:19.907Z,8.98
2019-02-15T20:46:54.705Z,8.93
2019-02-15T20:49:29.512Z,10.13
2019-02-15T20:52:04.096Z,9.85
2019-02-15T20:54:38.737Z,8.35
2019-02-15T20:57:13.314Z,8.40
2019-02-15T20:59:48.864Z,8.13
2019-02-15T21:02:23.960Z,8.45
2019-02-15T21:04:58.825Z,8.60
2019-02-15T21:07:34.168Z,8.18
2019-02-15T21:10:10.713Z,7.92
2019-02-15T21:12:45.516Z,8.75
2019-02-15T21:15:20.831Z,8.73
2019-02-15T21:17:55.557Z,8.95
2019-02-15T21:20:30.146Z,8.10
2019-02-15T21:23:04.633Z,7.60
2019-02-15T21:28:13.321Z,8.35
2019-02-15T21:30:48.532Z,8.75
2019-02-15T21:33:23.333Z,8.88
2019-02-15T21:35:57.658Z,8.95
2019-02-15T21:38:32.327Z,9.28
2019-02-15T21:41:07.041Z,9.95
2019-02-15T21:43:42.137Z,10.63
2019-02-15T21:46:18.101Z,11.50
2019-02-15T21:48:52.659Z,10.70
2019-02-15T21:51:27.175Z,10.85
2019-02-15T21:54:01.808Z,11.65
2019-02-15T21:56:36.698Z,10.95
2019-02-15T21:59:11.113Z,11.30
2019-02-15T22:01:46.673Z,10.98
2019-02-15T22:04:21.051Z,11.55
2019-02-15T22:06:56.465Z,11.38
2019-02-15T22:09:31.147Z,11.55
2019-02-15T22:12:06.069Z,11.55
2019-02-15T22:14:41.124Z,12.15
2019-02-15T22:17:15.975Z,12.05
2019-02-15T22:19:50.617Z,12.10
2019-02-15T22:22:27.329Z,10.48
2019-02-15T22:25:01.985Z,11.28
2019-02-15T22:27:40.829Z,10.40
2019-02-15T22:30:16.309Z,9.95
2019-02-15T22:32:50.844Z,10.18
2019-02-15T22:35:25.644Z,9.50
2019-02-15T22:40:37.802Z,10.15
2019-02-15T22:43:24.321Z,10.30
2019-02-15T22:45:58.983Z,9.68
2019-02-15T22:48:33.958Z,10.30
2019-02-15T22:51:08.666Z,10.25
2019-02-15T22:53:43.017Z,9.98
2019-02-15T22:56:17.603Z,13.50
2019-02-15T23:01:26.546Z,10.65
2019-02-15T23:04:01.552Z,11.75
2019-02-15T23:06:36.643Z,10.80
2019-02-15T23:11:56.994Z,10.60
2019-02-15T23:14:31.580Z,10.45
2019-02-15T23:19:40.027Z,10.20
2019-02-15T23:22:14.921Z,10.08
2019-02-15T23:24:49.519Z,9.95
2019-02-15T23:27:24.565Z,9.83
2019-02-15T23:32:33.151Z,11.03
2019-02-15T23:35:07.838Z,10.95
2019-02-15T23:37:42.567Z,11.45
2019-02-15T23:40:17.046Z,11.70
2019-02-15T23:42:52.085Z,11.08
2019-02-15T23:45:27.339Z,11.60
2019-02-15T23:48:02.555Z,11.43
2019-02-15T23:50:38.664Z,10.98
2019-02-15T23:53:13.735Z,11.25
2019-02-15T23:55:48.632Z,10.72
2019-02-15T23:58:22.999Z,10.65
